sensor_id;sensor_type;location;lat;lon;timestamp;P1;durP1;ratioP1;P2;durP2;ratioP2
46447;SDS011;32145;50.390;30.778;2023-04-15T00:02:19;7.70;;;4.10;;
46447;SDS011;32145;50.390;30.778;2023-04-15T00:05:16;6.50;;;4.30;;
46447;SDS011;32145;50.390;30.778;2023-04-15T00:08:14;7.03;;;4.20;;
46447;SDS011;32145;50.390;30.778;2023-04-15T00:11:10;5.78;;;4.03;;
46447;SDS011;32145;50.390;30.778;2023-04-15T00:14:07;6.13;;;4.30;;
46447;SDS011;32145;50.390;30.778;2023-04-15T00:17:03;7.72;;;4.45;;
46447;SDS011;32145;50.390;30.778;2023-04-15T00:19:59;5.50;;;3.90;;
46447;SDS011;32145;50.390;30.778;2023-04-15T00:22:55;6.88;;;4.07;;
46447;SDS011;32145;50.390;30.778;2023-04-15T00:25:53;5.60;;;3.67;;
46447;SDS011;32145;50.390;30.778;2023-04-15T00:28:49;6.05;;;3.92;;
46447;SDS011;32145;50.390;30.778;2023-04-15T00:31:46;5.72;;;3.83;;
46447;SDS011;32145;50.390;30.778;2023-04-15T00:34:43;8.60;;;4.50;;
46447;SDS011;32145;50.390;30.778;2023-04-15T00:37:38;5.68;;;3.97;;
46447;SDS011;32145;50.390;30.778;2023-04-15T00:40:32;7.28;;;4.13;;
46447;SDS011;32145;50.390;30.778;2023-04-15T00:43:28;5.53;;;3.88;;
46447;SDS011;32145;50.390;30.778;2023-04-15T00:46:24;6.80;;;3.97;;
46447;SDS011;32145;50.390;30.778;2023-04-15T00:49:23;6.40;;;3.95;;
46447;SDS011;32145;50.390;30.778;2023-04-15T00:52:19;5.38;;;4.00;;
46447;SDS011;32145;50.390;30.778;2023-04-15T00:55:14;5.78;;;3.72;;
46447;SDS011;32145;50.390;30.778;2023-04-15T00:58:09;5.75;;;4.15;;
46447;SDS011;32145;50.390;30.778;2023-04-15T01:01:04;5.82;;;3.70;;
46447;SDS011;32145;50.390;30.778;2023-04-15T01:03:58;5.60;;;4.35;;
46447;SDS011;32145;50.390;30.778;2023-04-15T01:06:53;6.18;;;4.43;;
46447;SDS011;32145;50.390;30.778;2023-04-15T01:09:47;6.40;;;4.53;;
46447;SDS011;32145;50.390;30.778;2023-04-15T01:12:44;7.07;;;4.60;;
46447;SDS011;32145;50.390;30.778;2023-04-15T01:15:38;8.05;;;4.80;;
46447;SDS011;32145;50.390;30.778;2023-04-15T01:18:34;7.70;;;4.78;;
46447;SDS011;32145;50.390;30.778;2023-04-15T01:21:31;7.43;;;4.53;;
46447;SDS011;32145;50.390;30.778;2023-04-15T01:24:27;8.90;;;5.10;;
46447;SDS011;32145;50.390;30.778;2023-04-15T01:27:27;7.55;;;5.22;;
46447;SDS011;32145;50.390;30.778;2023-04-15T01:30:24;8.90;;;5.07;;
46447;SDS011;32145;50.390;30.778;2023-04-15T01:33:20;6.53;;;4.78;;
46447;SDS011;32145;50.390;30.778;2023-04-15T01:36:16;8.50;;;5.15;;
46447;SDS011;32145;50.390;30.778;2023-04-15T01:39:13;8.02;;;5.57;;
46447;SDS011;32145;50.390;30.778;2023-04-15T01:42:09;7.95;;;5.18;;
46447;SDS011;32145;50.390;30.778;2023-04-15T01:45:05;8.23;;;5.75;;
46447;SDS011;32145;50.390;30.778;2023-04-15T01:48:00;8.00;;;5.05;;
46447;SDS011;32145;50.390;30.778;2023-04-15T01:50:55;8.05;;;5.47;;
46447;SDS011;32145;50.390;30.778;2023-04-15T01:53:49;8.95;;;5.53;;
46447;SDS011;32145;50.390;30.778;2023-04-15T01:56:43;7.93;;;5.53;;
46447;SDS011;32145;50.390;30.778;2023-04-15T01:59:38;9.25;;;6.00;;
46447;SDS011;32145;50.390;30.778;2023-04-15T02:02:36;7.35;;;5.20;;
46447;SDS011;32145;50.390;30.778;2023-04-15T02:05:30;7.18;;;5.18;;
46447;SDS011;32145;50.390;30.778;2023-04-15T02:08:24;8.07;;;5.63;;
46447;SDS011;32145;50.390;30.778;2023-04-15T02:11:19;8.75;;;5.68;;
46447;SDS011;32145;50.390;30.778;2023-04-15T02:14:15;7.32;;;5.07;;
46447;SDS011;32145;50.390;30.778;2023-04-15T02:17:11;7.15;;;5.18;;
46447;SDS011;32145;50.390;30.778;2023-04-15T02:20:09;6.40;;;4.68;;
46447;SDS011;32145;50.390;30.778;2023-04-15T02:23:06;7.75;;;5.00;;
46447;SDS011;32145;50.390;30.778;2023-04-15T02:26:02;7.85;;;5.30;;
46447;SDS011;32145;50.390;30.778;2023-04-15T02:28:59;8.73;;;5.28;;
46447;SDS011;32145;50.390;30.778;2023-04-15T02:31:55;7.72;;;5.20;;
46447;SDS011;32145;50.390;30.778;2023-04-15T02:34:51;7.22;;;5.25;;
46447;SDS011;32145;50.390;30.778;2023-04-15T02:37:49;7.55;;;5.55;;
46447;SDS011;32145;50.390;30.778;2023-04-15T02:40:45;11.52;;;5.57;;
46447;SDS011;32145;50.390;30.778;2023-04-15T02:43:41;8.07;;;5.60;;
46447;SDS011;32145;50.390;30.778;2023-04-15T02:46:38;7.63;;;5.35;;
46447;SDS011;32145;50.390;30.778;2023-04-15T02:49:34;7.68;;;5.60;;
46447;SDS011;32145;50.390;30.778;2023-04-15T02:52:30;7.90;;;5.18;;
46447;SDS011;32145;50.390;30.778;2023-04-15T02:55:28;9.18;;;5.82;;
46447;SDS011;32145;50.390;30.778;2023-04-15T02:58:25;10.38;;;5.97;;
46447;SDS011;32145;50.390;30.778;2023-04-15T03:01:21;8.35;;;5.55;;
46447;SDS011;32145;50.390;30.778;2023-04-15T03:04:15;9.23;;;5.85;;
46447;SDS011;32145;50.390;30.778;2023-04-15T03:07:03;8.43;;;5.60;;
46447;SDS011;32145;50.390;30.778;2023-04-15T03:10:00;7.35;;;6.00;;
46447;SDS011;32145;50.390;30.778;2023-04-15T03:12:58;8.10;;;5.47;;
46447;SDS011;32145;50.390;30.778;2023-04-15T03:15:54;8.32;;;5.78;;
46447;SDS011;32145;50.390;30.778;2023-04-15T03:18:50;8.13;;;5.80;;
46447;SDS011;32145;50.390;30.778;2023-04-15T03:21:46;6.82;;;4.78;;
46447;SDS011;32145;50.390;30.778;2023-04-15T03:24:43;9.07;;;5.85;;
46447;SDS011;32145;50.390;30.778;2023-04-15T03:27:40;8.88;;;5.65;;
46447;SDS011;32145;50.390;30.778;2023-04-15T03:30:38;7.32;;;5.47;;
46447;SDS011;32145;50.390;30.778;2023-04-15T03:33:32;8.77;;;6.30;;
46447;SDS011;32145;50.390;30.778;2023-04-15T03:36:28;8.20;;;5.45;;
46447;SDS011;32145;50.390;30.778;2023-04-15T03:39:22;9.20;;;6.00;;
46447;SDS011;32145;50.390;30.778;2023-04-15T03:42:16;8.95;;;6.03;;
46447;SDS011;32145;50.390;30.778;2023-04-15T03:45:10;9.48;;;6.13;;
46447;SDS011;32145;50.390;30.778;2023-04-15T03:48:08;8.82;;;6.22;;
46447;SDS011;32145;50.390;30.778;2023-04-15T03:51:04;7.25;;;5.28;;
46447;SDS011;32145;50.390;30.778;2023-04-15T03:53:55;8.43;;;5.95;;
46447;SDS011;32145;50.390;30.778;2023-04-15T03:56:49;9.43;;;5.95;;
46447;SDS011;32145;50.390;30.778;2023-04-15T03:59:43;9.07;;;5.90;;
46447;SDS011;32145;50.390;30.778;2023-04-15T04:02:37;9.25;;;6.03;;
46447;SDS011;32145;50.390;30.778;2023-04-15T04:05:33;9.05;;;6.40;;
46447;SDS011;32145;50.390;30.778;2023-04-15T04:08:27;12.13;;;6.43;;
46447;SDS011;32145;50.390;30.778;2023-04-15T04:11:22;8.85;;;6.10;;
46447;SDS011;32145;50.390;30.778;2023-04-15T04:14:16;9.63;;;6.57;;
46447;SDS011;32145;50.390;30.778;2023-04-15T04:17:10;9.10;;;5.65;;
46447;SDS011;32145;50.390;30.778;2023-04-15T04:19:59;9.68;;;6.20;;
46447;SDS011;32145;50.390;30.778;2023-04-15T04:22:56;10.43;;;6.50;;
46447;SDS011;32145;50.390;30.778;2023-04-15T04:25:52;11.10;;;6.28;;
46447;SDS011;32145;50.390;30.778;2023-04-15T04:28:49;10.10;;;6.55;;
46447;SDS011;32145;50.390;30.778;2023-04-15T04:31:39;11.13;;;6.40;;
46447;SDS011;32145;50.390;30.778;2023-04-15T04:34:34;9.50;;;6.65;;
46447;SDS011;32145;50.390;30.778;2023-04-15T04:37:28;12.02;;;7.15;;
46447;SDS011;32145;50.390;30.778;2023-04-15T04:40:23;10.45;;;6.93;;
46447;SDS011;32145;50.390;30.778;2023-04-15T04:43:18;11.60;;;6.82;;
46447;SDS011;32145;50.390;30.778;2023-04-15T04:46:12;12.10;;;7.13;;
46447;SDS011;32145;50.390;30.778;2023-04-15T04:49:07;9.93;;;7.05;;
46447;SDS011;32145;50.390;30.778;2023-04-15T04:52:01;11.63;;;7.25;;
46447;SDS011;32145;50.390;30.778;2023-04-15T04:54:55;18.30;;;7.65;;
46447;SDS011;32145;50.390;30.778;2023-04-15T04:57:51;12.40;;;6.90;;
46447;SDS011;32145;50.390;30.778;2023-04-15T05:00:47;11.05;;;6.35;;
46447;SDS011;32145;50.390;30.778;2023-04-15T05:03:44;8.95;;;6.00;;
46447;SDS011;32145;50.390;30.778;2023-04-15T05:06:40;10.80;;;6.68;;
46447;SDS011;32145;50.390;30.778;2023-04-15T05:09:36;11.63;;;6.38;;
46447;SDS011;32145;50.390;30.778;2023-04-15T05:12:34;8.57;;;5.47;;
46447;SDS011;32145;50.390;30.778;2023-04-15T05:15:31;8.90;;;6.18;;
46447;SDS011;32145;50.390;30.778;2023-04-15T05:18:28;8.77;;;5.50;;
46447;SDS011;32145;50.390;30.778;2023-04-15T05:21:19;11.00;;;6.72;;
46447;SDS011;32145;50.390;30.778;2023-04-15T05:24:13;9.25;;;5.82;;
46447;SDS011;32145;50.390;30.778;2023-04-15T05:27:07;10.73;;;6.32;;
46447;SDS011;32145;50.390;30.778;2023-04-15T05:30:02;11.40;;;6.22;;
46447;SDS011;32145;50.390;30.778;2023-04-15T05:32:57;9.07;;;5.88;;
46447;SDS011;32145;50.390;30.778;2023-04-15T05:35:52;9.20;;;6.00;;
46447;SDS011;32145;50.390;30.778;2023-04-15T05:38:46;7.93;;;5.90;;
46447;SDS011;32145;50.390;30.778;2023-04-15T05:41:40;9.95;;;6.25;;
46447;SDS011;32145;50.390;30.778;2023-04-15T05:44:37;9.98;;;5.97;;
46447;SDS011;32145;50.390;30.778;2023-04-15T05:47:33;9.75;;;5.97;;
46447;SDS011;32145;50.390;30.778;2023-04-15T05:50:29;8.70;;;6.03;;
46447;SDS011;32145;50.390;30.778;2023-04-15T05:53:23;8.57;;;6.03;;
46447;SDS011;32145;50.390;30.778;2023-04-15T05:56:17;9.55;;;6.00;;
46447;SDS011;32145;50.390;30.778;2023-04-15T05:59:06;8.70;;;5.47;;
46447;SDS011;32145;50.390;30.778;2023-04-15T06:01:56;9.35;;;5.95;;
46447;SDS011;32145;50.390;30.778;2023-04-15T06:04:45;9.00;;;5.60;;
46447;SDS011;32145;50.390;30.778;2023-04-15T06:07:36;9.23;;;6.10;;
46447;SDS011;32145;50.390;30.778;2023-04-15T06:10:25;8.85;;;5.60;;
46447;SDS011;32145;50.390;30.778;2023-04-15T06:13:15;10.05;;;5.50;;
46447;SDS011;32145;50.390;30.778;2023-04-15T06:16:10;8.63;;;5.60;;
46447;SDS011;32145;50.390;30.778;2023-04-15T06:19:04;9.02;;;5.47;;
46447;SDS011;32145;50.390;30.778;2023-04-15T06:21:58;9.00;;;5.30;;
46447;SDS011;32145;50.390;30.778;2023-04-15T06:24:54;9.40;;;5.85;;
46447;SDS011;32145;50.390;30.778;2023-04-15T06:27:49;8.13;;;5.28;;
46447;SDS011;32145;50.390;30.778;2023-04-15T06:30:43;9.77;;;6.03;;
46447;SDS011;32145;50.390;30.778;2023-04-15T06:33:31;10.20;;;5.50;;
46447;SDS011;32145;50.390;30.778;2023-04-15T06:36:28;8.32;;;5.10;;
46447;SDS011;32145;50.390;30.778;2023-04-15T06:39:24;7.70;;;5.13;;
46447;SDS011;32145;50.390;30.778;2023-04-15T06:42:22;8.93;;;5.65;;
46447;SDS011;32145;50.390;30.778;2023-04-15T06:45:18;8.68;;;5.20;;
46447;SDS011;32145;50.390;30.778;2023-04-15T06:48:14;10.80;;;5.32;;
46447;SDS011;32145;50.390;30.778;2023-04-15T06:51:10;7.68;;;5.15;;
46447;SDS011;32145;50.390;30.778;2023-04-15T06:54:01;8.70;;;5.43;;
46447;SDS011;32145;50.390;30.778;2023-04-15T06:56:55;7.22;;;4.93;;
46447;SDS011;32145;50.390;30.778;2023-04-15T06:59:51;6.93;;;4.88;;
46447;SDS011;32145;50.390;30.778;2023-04-15T07:02:45;7.47;;;4.30;;
46447;SDS011;32145;50.390;30.778;2023-04-15T07:05:39;7.60;;;4.80;;
46447;SDS011;32145;50.390;30.778;2023-04-15T07:08:28;6.97;;;4.75;;
46447;SDS011;32145;50.390;30.778;2023-04-15T07:11:18;11.25;;;5.00;;
46447;SDS011;32145;50.390;30.778;2023-04-15T07:14:13;8.65;;;5.00;;
46447;SDS011;32145;50.390;30.778;2023-04-15T07:17:09;6.88;;;4.60;;
46447;SDS011;32145;50.390;30.778;2023-04-15T07:20:03;6.45;;;4.15;;
46447;SDS011;32145;50.390;30.778;2023-04-15T07:22:58;6.30;;;4.30;;
46447;SDS011;32145;50.390;30.778;2023-04-15T07:25:47;7.47;;;4.10;;
46447;SDS011;32145;50.390;30.778;2023-04-15T07:28:43;5.60;;;3.83;;
46447;SDS011;32145;50.390;30.778;2023-04-15T07:31:38;5.45;;;3.63;;
46447;SDS011;32145;50.390;30.778;2023-04-15T07:34:34;6.72;;;3.88;;
46447;SDS011;32145;50.390;30.778;2023-04-15T07:37:29;7.78;;;3.92;;
46447;SDS011;32145;50.390;30.778;2023-04-15T07:40:23;7.13;;;4.00;;
46447;SDS011;32145;50.390;30.778;2023-04-15T07:43:17;6.38;;;4.20;;
46447;SDS011;32145;50.390;30.778;2023-04-15T07:46:12;8.38;;;4.55;;
46447;SDS011;32145;50.390;30.778;2023-04-15T07:49:08;7.65;;;4.55;;
46447;SDS011;32145;50.390;30.778;2023-04-15T07:52:05;7.60;;;4.80;;
46447;SDS011;32145;50.390;30.778;2023-04-15T07:55:00;8.88;;;4.53;;
46447;SDS011;32145;50.390;30.778;2023-04-15T07:57:54;7.60;;;4.45;;
46447;SDS011;32145;50.390;30.778;2023-04-15T08:00:42;14.73;;;4.57;;
46447;SDS011;32145;50.390;30.778;2023-04-15T08:03:33;8.55;;;4.75;;
46447;SDS011;32145;50.390;30.778;2023-04-15T08:06:21;8.88;;;4.45;;
46447;SDS011;32145;50.390;30.778;2023-04-15T08:09:19;8.35;;;5.10;;
46447;SDS011;32145;50.390;30.778;2023-04-15T08:12:15;8.73;;;4.60;;
46447;SDS011;32145;50.390;30.778;2023-04-15T08:15:10;8.55;;;5.10;;
46447;SDS011;32145;50.390;30.778;2023-04-15T08:18:04;8.07;;;4.57;;
46447;SDS011;32145;50.390;30.778;2023-04-15T08:20:58;7.13;;;4.50;;
46447;SDS011;32145;50.390;30.778;2023-04-15T08:23:47;7.60;;;4.40;;
46447;SDS011;32145;50.390;30.778;2023-04-15T08:26:40;5.93;;;4.25;;
46447;SDS011;32145;50.390;30.778;2023-04-15T08:29:28;8.45;;;4.40;;
46447;SDS011;32145;50.390;30.778;2023-04-15T08:32:26;6.38;;;4.03;;
46447;SDS011;32145;50.390;30.778;2023-04-15T08:35:21;5.38;;;3.60;;
46447;SDS011;32145;50.390;30.778;2023-04-15T08:38:15;5.78;;;3.95;;
46447;SDS011;32145;50.390;30.778;2023-04-15T08:41:10;5.38;;;3.67;;
46447;SDS011;32145;50.390;30.778;2023-04-15T08:44:06;5.85;;;3.85;;
46447;SDS011;32145;50.390;30.778;2023-04-15T08:46:56;5.03;;;4.00;;
46447;SDS011;32145;50.390;30.778;2023-04-15T08:49:48;6.18;;;3.92;;
46447;SDS011;32145;50.390;30.778;2023-04-15T08:52:43;6.82;;;3.80;;
46447;SDS011;32145;50.390;30.778;2023-04-15T08:55:38;5.65;;;3.80;;
46447;SDS011;32145;50.390;30.778;2023-04-15T08:58:30;6.25;;;3.70;;
46447;SDS011;32145;50.390;30.778;2023-04-15T09:01:30;5.55;;;3.60;;
46447;SDS011;32145;50.390;30.778;2023-04-15T09:04:24;5.00;;;3.70;;
46447;SDS011;32145;50.390;30.778;2023-04-15T09:07:13;5.18;;;3.42;;
46447;SDS011;32145;50.390;30.778;2023-04-15T09:10:10;8.75;;;3.90;;
46447;SDS011;32145;50.390;30.778;2023-04-15T09:13:00;5.90;;;3.90;;
46447;SDS011;32145;50.390;30.778;2023-04-15T09:15:57;6.70;;;3.70;;
46447;SDS011;32145;50.390;30.778;2023-04-15T09:18:54;7.28;;;4.28;;
46447;SDS011;32145;50.390;30.778;2023-04-15T09:21:46;14.57;;;8.93;;
46447;SDS011;32145;50.390;30.778;2023-04-15T09:24:42;6.40;;;4.03;;
46447;SDS011;32145;50.390;30.778;2023-04-15T09:27:41;5.47;;;3.95;;
46447;SDS011;32145;50.390;30.778;2023-04-15T09:30:36;6.38;;;3.90;;
46447;SDS011;32145;50.390;30.778;2023-04-15T09:33:26;6.27;;;4.07;;
46447;SDS011;32145;50.390;30.778;2023-04-15T09:36:18;6.20;;;4.28;;
46447;SDS011;32145;50.390;30.778;2023-04-15T09:39:14;5.28;;;3.70;;
46447;SDS011;32145;50.390;30.778;2023-04-15T09:42:11;5.75;;;3.53;;
46447;SDS011;32145;50.390;30.778;2023-04-15T09:45:07;6.22;;;4.00;;
46447;SDS011;32145;50.390;30.778;2023-04-15T09:48:15;5.43;;;3.78;;
46447;SDS011;32145;50.390;30.778;2023-04-15T09:51:13;5.82;;;3.95;;
46447;SDS011;32145;50.390;30.778;2023-04-15T09:54:09;6.43;;;3.83;;
46447;SDS011;32145;50.390;30.778;2023-04-15T09:57:06;6.07;;;3.80;;
46447;SDS011;32145;50.390;30.778;2023-04-15T10:00:03;6.00;;;3.22;;
46447;SDS011;32145;50.390;30.778;2023-04-15T10:03:01;6.15;;;3.63;;
46447;SDS011;32145;50.390;30.778;2023-04-15T10:05:53;5.65;;;3.47;;
46447;SDS011;32145;50.390;30.778;2023-04-15T10:08:42;6.90;;;3.85;;
46447;SDS011;32145;50.390;30.778;2023-04-15T10:11:34;8.60;;;3.78;;
46447;SDS011;32145;50.390;30.778;2023-04-15T10:14:28;6.15;;;3.53;;
46447;SDS011;32145;50.390;30.778;2023-04-15T10:17:26;6.63;;;3.85;;
46447;SDS011;32145;50.390;30.778;2023-04-15T10:20:21;5.93;;;3.38;;
46447;SDS011;32145;50.390;30.778;2023-04-15T10:23:16;6.57;;;4.10;;
46447;SDS011;32145;50.390;30.778;2023-04-15T10:26:11;6.05;;;3.88;;
46447;SDS011;32145;50.390;30.778;2023-04-15T10:29:07;6.43;;;3.88;;
46447;SDS011;32145;50.390;30.778;2023-04-15T10:31:57;5.35;;;3.85;;
46447;SDS011;32145;50.390;30.778;2023-04-15T10:34:48;6.65;;;4.25;;
46447;SDS011;32145;50.390;30.778;2023-04-15T10:37:44;5.97;;;3.72;;
46447;SDS011;32145;50.390;30.778;2023-04-15T10:40:40;8.57;;;4.13;;
46447;SDS011;32145;50.390;30.778;2023-04-15T10:43:37;5.63;;;3.65;;
46447;SDS011;32145;50.390;30.778;2023-04-15T10:46:35;6.22;;;3.85;;
46447;SDS011;32145;50.390;30.778;2023-04-15T10:49:31;9.68;;;4.00;;
46447;SDS011;32145;50.390;30.778;2023-04-15T10:52:25;6.78;;;4.00;;
46447;SDS011;32145;50.390;30.778;2023-04-15T10:55:17;8.70;;;3.85;;
46447;SDS011;32145;50.390;30.778;2023-04-15T10:58:17;10.27;;;4.10;;
46447;SDS011;32145;50.390;30.778;2023-04-15T11:01:11;6.38;;;3.90;;
46447;SDS011;32145;50.390;30.778;2023-04-15T11:04:11;5.53;;;3.75;;
46447;SDS011;32145;50.390;30.778;2023-04-15T11:07:05;5.50;;;3.65;;
46447;SDS011;32145;50.390;30.778;2023-04-15T11:10:00;5.22;;;3.47;;
46447;SDS011;32145;50.390;30.778;2023-04-15T11:12:55;6.03;;;3.65;;
46447;SDS011;32145;50.390;30.778;2023-04-15T11:15:54;5.57;;;4.25;;
46447;SDS011;32145;50.390;30.778;2023-04-15T11:18:55;6.00;;;4.07;;
46447;SDS011;32145;50.390;30.778;2023-04-15T11:21:44;8.07;;;4.00;;
46447;SDS011;32145;50.390;30.778;2023-04-15T11:24:50;6.35;;;4.20;;
46447;SDS011;32145;50.390;30.778;2023-04-15T11:27:45;6.40;;;3.70;;
46447;SDS011;32145;50.390;30.778;2023-04-15T11:30:41;5.95;;;3.67;;
46447;SDS011;32145;50.390;30.778;2023-04-15T11:33:31;5.85;;;3.53;;
46447;SDS011;32145;50.390;30.778;2023-04-15T11:36:20;5.17;;;3.60;;
46447;SDS011;32145;50.390;30.778;2023-04-15T11:39:13;10.55;;;4.43;;
46447;SDS011;32145;50.390;30.778;2023-04-15T11:42:15;9.38;;;4.28;;
46447;SDS011;32145;50.390;30.778;2023-04-15T11:45:06;7.72;;;4.65;;
46447;SDS011;32145;50.390;30.778;2023-04-15T11:48:07;7.38;;;4.35;;
46447;SDS011;32145;50.390;30.778;2023-04-15T11:51:06;6.15;;;3.85;;
46447;SDS011;32145;50.390;30.778;2023-04-15T11:54:02;6.95;;;4.20;;
46447;SDS011;32145;50.390;30.778;2023-04-15T11:57:00;7.18;;;4.50;;
46447;SDS011;32145;50.390;30.778;2023-04-15T11:59:56;7.95;;;3.95;;
46447;SDS011;32145;50.390;30.778;2023-04-15T12:02:45;7.03;;;4.40;;
46447;SDS011;32145;50.390;30.778;2023-04-15T12:06:01;8.20;;;4.22;;
46447;SDS011;32145;50.390;30.778;2023-04-15T12:09:02;6.30;;;4.43;;
46447;SDS011;32145;50.390;30.778;2023-04-15T12:12:04;6.65;;;3.60;;
46447;SDS011;32145;50.390;30.778;2023-04-15T12:15:00;7.05;;;3.92;;
46447;SDS011;32145;50.390;30.778;2023-04-15T12:17:56;5.60;;;3.80;;
46447;SDS011;32145;50.390;30.778;2023-04-15T12:20:51;6.32;;;4.35;;
46447;SDS011;32145;50.390;30.778;2023-04-15T12:23:48;8.07;;;4.30;;
46447;SDS011;32145;50.390;30.778;2023-04-15T12:26:43;7.72;;;4.20;;
46447;SDS011;32145;50.390;30.778;2023-04-15T12:29:40;6.40;;;4.28;;
46447;SDS011;32145;50.390;30.778;2023-04-15T12:32:36;5.82;;;3.70;;
46447;SDS011;32145;50.390;30.778;2023-04-15T12:35:30;6.40;;;3.45;;
46447;SDS011;32145;50.390;30.778;2023-04-15T12:38:24;9.68;;;3.75;;
46447;SDS011;32145;50.390;30.778;2023-04-15T12:41:19;5.90;;;3.70;;
46447;SDS011;32145;50.390;30.778;2023-04-15T12:44:13;5.47;;;4.10;;
46447;SDS011;32145;50.390;30.778;2023-04-15T12:47:09;7.22;;;3.92;;
46447;SDS011;32145;50.390;30.778;2023-04-15T12:50:04;6.38;;;3.95;;
46447;SDS011;32145;50.390;30.778;2023-04-15T12:52:59;6.10;;;3.75;;
46447;SDS011;32145;50.390;30.778;2023-04-15T12:55:53;7.32;;;4.03;;
46447;SDS011;32145;50.390;30.778;2023-04-15T12:58:48;7.60;;;4.15;;
46447;SDS011;32145;50.390;30.778;2023-04-15T13:01:42;5.90;;;4.32;;
46447;SDS011;32145;50.390;30.778;2023-04-15T13:04:38;7.65;;;4.55;;
46447;SDS011;32145;50.390;30.778;2023-04-15T13:07:33;8.00;;;4.80;;
46447;SDS011;32145;50.390;30.778;2023-04-15T13:10:27;10.15;;;4.93;;
46447;SDS011;32145;50.390;30.778;2023-04-15T13:13:21;7.38;;;5.07;;
46447;SDS011;32145;50.390;30.778;2023-04-15T13:16:15;7.57;;;4.60;;
46447;SDS011;32145;50.390;30.778;2023-04-15T13:19:10;7.60;;;4.47;;
46447;SDS011;32145;50.390;30.778;2023-04-15T13:22:06;6.68;;;4.75;;
46447;SDS011;32145;50.390;30.778;2023-04-15T13:25:00;7.40;;;4.75;;
46447;SDS011;32145;50.390;30.778;2023-04-15T13:27:54;7.32;;;4.68;;
46447;SDS011;32145;50.390;30.778;2023-04-15T13:30:48;7.63;;;4.35;;
46447;SDS011;32145;50.390;30.778;2023-04-15T13:33:43;6.85;;;4.50;;
46447;SDS011;32145;50.390;30.778;2023-04-15T13:36:37;7.22;;;4.72;;
46447;SDS011;32145;50.390;30.778;2023-04-15T13:39:33;7.32;;;4.75;;
46447;SDS011;32145;50.390;30.778;2023-04-15T13:42:27;6.40;;;4.40;;
46447;SDS011;32145;50.390;30.778;2023-04-15T13:45:21;8.90;;;4.60;;
46447;SDS011;32145;50.390;30.778;2023-04-15T13:48:16;8.40;;;5.05;;
46447;SDS011;32145;50.390;30.778;2023-04-15T13:51:10;13.55;;;6.32;;
46447;SDS011;32145;50.390;30.778;2023-04-15T13:54:05;7.85;;;4.95;;
46447;SDS011;32145;50.390;30.778;2023-04-15T13:57:00;6.28;;;4.80;;
46447;SDS011;32145;50.390;30.778;2023-04-15T13:59:56;6.60;;;4.50;;
46447;SDS011;32145;50.390;30.778;2023-04-15T14:02:53;6.25;;;4.40;;
46447;SDS011;32145;50.390;30.778;2023-04-15T14:05:49;6.97;;;4.72;;
46447;SDS011;32145;50.390;30.778;2023-04-15T14:08:45;7.10;;;5.13;;
46447;SDS011;32145;50.390;30.778;2023-04-15T14:11:42;6.43;;;4.60;;
46447;SDS011;32145;50.390;30.778;2023-04-15T14:14:39;7.40;;;5.00;;
46447;SDS011;32145;50.390;30.778;2023-04-15T14:17:34;7.72;;;4.90;;
46447;SDS011;32145;50.390;30.778;2023-04-15T14:20:28;7.72;;;5.13;;
46447;SDS011;32145;50.390;30.778;2023-04-15T14:23:23;10.23;;;6.00;;
46447;SDS011;32145;50.390;30.778;2023-04-15T14:26:17;7.97;;;5.30;;
46447;SDS011;32145;50.390;30.778;2023-04-15T14:29:12;7.50;;;5.30;;
46447;SDS011;32145;50.390;30.778;2023-04-15T14:32:10;14.77;;;9.43;;
46447;SDS011;32145;50.390;30.778;2023-04-15T14:35:04;15.52;;;9.52;;
46447;SDS011;32145;50.390;30.778;2023-04-15T14:37:59;14.60;;;8.65;;
46447;SDS011;32145;50.390;30.778;2023-04-15T14:40:53;18.25;;;8.88;;
46447;SDS011;32145;50.390;30.778;2023-04-15T14:43:47;19.83;;;10.48;;
46447;SDS011;32145;50.390;30.778;2023-04-15T14:46:42;25.48;;;13.32;;
46447;SDS011;32145;50.390;30.778;2023-04-15T14:49:37;18.90;;;9.60;;
46447;SDS011;32145;50.390;30.778;2023-04-15T14:52:33;17.13;;;12.23;;
46447;SDS011;32145;50.390;30.778;2023-04-15T14:55:30;15.95;;;9.20;;
46447;SDS011;32145;50.390;30.778;2023-04-15T14:58:26;15.32;;;9.50;;
46447;SDS011;32145;50.390;30.778;2023-04-15T15:01:22;12.48;;;7.05;;
46447;SDS011;32145;50.390;30.778;2023-04-15T15:04:19;11.30;;;8.07;;
46447;SDS011;32145;50.390;30.778;2023-04-15T15:07:14;12.23;;;8.15;;
46447;SDS011;32145;50.390;30.778;2023-04-15T15:10:09;11.65;;;7.82;;
46447;SDS011;32145;50.390;30.778;2023-04-15T15:13:04;10.40;;;6.07;;
46447;SDS011;32145;50.390;30.778;2023-04-15T15:15:59;8.63;;;5.68;;
46447;SDS011;32145;50.390;30.778;2023-04-15T15:18:53;9.68;;;6.70;;
46447;SDS011;32145;50.390;30.778;2023-04-15T15:21:48;14.27;;;9.95;;
46447;SDS011;32145;50.390;30.778;2023-04-15T15:24:43;10.45;;;7.65;;
46447;SDS011;32145;50.390;30.778;2023-04-15T15:27:38;20.23;;;12.65;;
46447;SDS011;32145;50.390;30.778;2023-04-15T15:30:32;24.58;;;14.40;;
46447;SDS011;32145;50.390;30.778;2023-04-15T15:33:26;15.43;;;9.40;;
46447;SDS011;32145;50.390;30.778;2023-04-15T15:36:23;16.45;;;11.20;;
46447;SDS011;32145;50.390;30.778;2023-04-15T15:39:19;14.00;;;9.50;;
46447;SDS011;32145;50.390;30.778;2023-04-15T15:42:17;13.18;;;7.85;;
46447;SDS011;32145;50.390;30.778;2023-04-15T15:45:11;8.38;;;5.18;;
46447;SDS011;32145;50.390;30.778;2023-04-15T15:48:06;11.88;;;6.60;;
46447;SDS011;32145;50.390;30.778;2023-04-15T15:51:00;8.85;;;6.38;;
46447;SDS011;32145;50.390;30.778;2023-04-15T15:53:55;11.38;;;7.30;;
46447;SDS011;32145;50.390;30.778;2023-04-15T15:56:49;9.68;;;6.57;;
46447;SDS011;32145;50.390;30.778;2023-04-15T15:59:45;7.85;;;5.07;;
46447;SDS011;32145;50.390;30.778;2023-04-15T16:02:41;9.65;;;6.72;;
46447;SDS011;32145;50.390;30.778;2023-04-15T16:05:36;12.25;;;6.60;;
46447;SDS011;32145;50.390;30.778;2023-04-15T16:08:30;12.07;;;6.93;;
46447;SDS011;32145;50.390;30.778;2023-04-15T16:11:25;8.98;;;6.22;;
46447;SDS011;32145;50.390;30.778;2023-04-15T16:14:19;9.13;;;6.25;;
46447;SDS011;32145;50.390;30.778;2023-04-15T16:17:15;10.38;;;6.35;;
46447;SDS011;32145;50.390;30.778;2023-04-15T16:20:09;9.38;;;6.25;;
46447;SDS011;32145;50.390;30.778;2023-04-15T16:23:05;9.68;;;5.68;;
46447;SDS011;32145;50.390;30.778;2023-04-15T16:26:04;8.02;;;5.93;;
46447;SDS011;32145;50.390;30.778;2023-04-15T16:28:59;7.80;;;5.88;;
46447;SDS011;32145;50.390;30.778;2023-04-15T16:31:53;9.35;;;7.20;;
46447;SDS011;32145;50.390;30.778;2023-04-15T16:34:50;8.63;;;6.18;;
46447;SDS011;32145;50.390;30.778;2023-04-15T16:37:47;8.05;;;5.50;;
46447;SDS011;32145;50.390;30.778;2023-04-15T16:40:43;8.48;;;5.43;;
46447;SDS011;32145;50.390;30.778;2023-04-15T16:43:39;8.88;;;5.25;;
46447;SDS011;32145;50.390;30.778;2023-04-15T16:46:36;7.22;;;5.28;;
46447;SDS011;32145;50.390;30.778;2023-04-15T16:49:32;7.60;;;4.90;;
46447;SDS011;32145;50.390;30.778;2023-04-15T16:52:30;8.82;;;4.82;;
46447;SDS011;32145;50.390;30.778;2023-04-15T16:55:26;7.72;;;5.72;;
46447;SDS011;32145;50.390;30.778;2023-04-15T16:58:22;8.18;;;5.88;;
46447;SDS011;32145;50.390;30.778;2023-04-15T17:01:19;7.70;;;5.30;;
46447;SDS011;32145;50.390;30.778;2023-04-15T17:04:15;8.07;;;5.88;;
46447;SDS011;32145;50.390;30.778;2023-04-15T17:07:09;8.57;;;6.15;;
46447;SDS011;32145;50.390;30.778;2023-04-15T17:10:05;9.07;;;6.22;;
46447;SDS011;32145;50.390;30.778;2023-04-15T17:13:00;9.23;;;6.15;;
46447;SDS011;32145;50.390;30.778;2023-04-15T17:15:55;8.77;;;6.32;;
46447;SDS011;32145;50.390;30.778;2023-04-15T17:18:49;8.10;;;6.63;;